Time;durP1;ratioP1;P1;durP2;ratioP2;P2;SDS_P1;SDS_P2;PMS_P1;PMS_P2;Temp;Humidity;BMP_temperature;BMP_pressure;BME280_temperature;BME280_humidity;BME280_pressure;Samples;Min_cycle;Max_cycle;Signal;HPM_P1;HPM_P2
2024/02/15 00:02:08;;;;;;;1.63;1.10;;;15.20;99.90;;;;;;5043161;28;20224;-56
2024/02/15 00:04:37;;;;;;;1.90;1.20;;;15.30;99.90;;;;;;5042355;28;20296;-55
2024/02/15 00:07:04;;;;;;;2.23;1.37;;;15.30;99.90;;;;;;5039621;28;20726;-55
2024/02/15 00:09:30;;;;;;;2.77;1.27;;;15.30;99.90;;;;;;5039359;28;20209;-56
2024/02/15 00:11:59;;;;;;;2.17;1.50;;;15.30;99.90;;;;;;5043072;28;20300;-56
2024/02/15 00:14:26;;;;;;;1.92;1.50;;;15.30;99.90;;;;;;5042957;28;20579;-56
2024/02/15 00:16:52;;;;;;;2.83;1.75;;;15.30;99.90;;;;;;5039970;28;20256;-55
2024/02/15 00:19:19;;;;;;;2.17;1.60;;;15.30;99.90;;;;;;5039449;28;20202;-56
2024/02/15 00:21:47;;;;;;;2.63;1.70;;;15.20;99.90;;;;;;5041574;28;20233;-56
2024/02/15 00:24:14;;;;;;;2.80;1.38;;;15.30;99.90;;;;;;5045849;28;20288;-56
2024/02/15 00:26:42;;;;;;;2.75;1.63;;;15.20;99.90;;;;;;5045569;28;20297;-56
2024/02/15 00:29:09;;;;;;;2.17;1.40;;;15.20;99.90;;;;;;5043355;28;20268;-56
2024/02/15 00:31:38;;;;;;;3.05;1.60;;;15.20;99.90;;;;;;5043755;28;20644;-56
2024/02/15 00:34:04;;;;;;;3.33;1.35;;;15.10;99.90;;;;;;5046794;28;20205;-56
2024/02/15 00:36:32;;;;;;;3.07;1.63;;;15.10;99.90;;;;;;5046432;28;20209;-56
2024/02/15 00:39:00;;;;;;;3.33;1.20;;;15.10;99.90;;;;;;5043139;28;20229;-56
2024/02/15 00:41:27;;;;;;;3.13;1.40;;;15.10;99.90;;;;;;5043375;28;20203;-56
2024/02/15 00:43:54;;;;;;;1.70;1.30;;;15.10;99.90;;;;;;5046246;28;20674;-56
2024/02/15 00:46:21;;;;;;;2.33;1.48;;;15.00;99.90;;;;;;5046566;28;20624;-56
2024/02/15 00:48:47;;;;;;;2.83;1.35;;;14.90;99.90;;;;;;5044175;28;20624;-56
2024/02/15 00:51:14;;;;;;;1.70;1.20;;;14.90;99.90;;;;;;5042497;28;20268;-56
2024/02/15 00:53:41;;;;;;;1.93;1.40;;;14.80;99.90;;;;;;5044325;28;20232;-56
2024/02/15 00:56:09;;;;;;;4.23;1.70;;;14.70;99.90;;;;;;5046318;28;20205;-56
2024/02/15 00:58:36;;;;;;;2.70;1.42;;;14.70;99.90;;;;;;5045635;28;20204;-56
2024/02/15 01:01:02;;;;;;;1.90;1.30;;;14.60;99.90;;;;;;5042661;28;20252;-56
2024/02/15 01:03:30;;;;;;;4.90;1.60;;;14.60;99.90;;;;;;5042675;28;20222;-56
2024/02/15 01:05:57;;;;;;;4.67;1.70;;;14.60;99.90;;;;;;5046057;28;20240;-56
2024/02/15 01:08:23;;;;;;;2.50;1.27;;;14.50;99.90;;;;;;5046329;28;20209;-56
2024/02/15 01:10:50;;;;;;;2.40;1.27;;;14.40;99.90;;;;;;5043208;28;20209;-56
2024/02/15 01:13:18;;;;;;;4.37;1.67;;;14.40;99.90;;;;;;5042690;28;20222;-56
2024/02/15 01:15:46;;;;;;;3.03;1.50;;;14.40;99.90;;;;;;5044410;28;20233;-56
2024/02/15 01:18:12;;;;;;;3.00;1.57;;;14.40;99.90;;;;;;5046120;28;20197;-57
2024/02/15 01:20:39;;;;;;;2.53;1.60;;;14.30;99.90;;;;;;5044603;28;20743;-57
2024/02/15 01:23:07;;;;;;;1.87;1.23;;;14.40;99.90;;;;;;5042295;28;20700;-56
2024/02/15 01:25:34;;;;;;;2.17;1.23;;;14.40;99.90;;;;;;5042594;28;20234;-57
2024/02/15 01:28:02;;;;;;;2.90;1.40;;;14.30;99.90;;;;;;5045741;28;20202;-56
2024/02/15 01:30:31;;;;;;;1.97;1.33;;;14.30;99.90;;;;;;5045394;28;20202;-56
2024/02/15 01:32:58;;;;;;;2.13;1.20;;;14.10;99.90;;;;;;5042008;28;20237;-57
2024/02/15 01:35:25;;;;;;;3.00;1.30;;;14.10;99.90;;;;;;5041303;28;20210;-57
2024/02/15 01:37:52;;;;;;;3.73;1.07;;;14.00;99.90;;;;;;5044948;28;20213;-56
2024/02/15 01:40:19;;;;;;;2.27;1.23;;;13.90;99.90;;;;;;5045333;28;20650;-56
2024/02/15 01:42:46;;;;;;;1.80;1.07;;;13.80;99.90;;;;;;5043421;28;20225;-56
2024/02/15 01:45:13;;;;;;;2.93;1.10;;;13.60;99.90;;;;;;5042117;28;20198;-56
2024/02/15 01:47:42;;;;;;;3.30;1.37;;;13.50;99.90;;;;;;5042729;28;20206;-56
2024/02/15 01:50:10;;;;;;;2.07;1.20;;;13.30;99.90;;;;;;5045326;28;20210;-56
2024/02/15 01:52:37;;;;;;;3.20;1.17;;;13.30;99.90;;;;;;5044412;28;20583;-57
2024/02/15 01:55:07;;;;;;;3.70;1.40;;;13.20;99.90;;;;;;5041970;28;20616;-56
2024/02/15 01:57:35;;;;;;;5.70;1.40;;;13.10;99.90;;;;;;5041878;28;20209;-56
2024/02/15 02:00:02;;;;;;;3.57;1.67;;;13.00;99.90;;;;;;5044944;28;20561;-56
2024/02/15 02:02:33;;;;;;;1.73;1.40;;;12.80;99.90;;;;;;5045202;28;20256;-56
2024/02/15 02:05:02;;;;;;;1.43;1.30;;;12.70;99.90;;;;;;5033687;28;20730;-56
2024/02/15 02:07:29;;;;;;;4.90;1.80;;;12.60;99.90;;;;;;5041708;28;20203;-57
2024/02/15 02:09:56;;;;;;;2.80;2.00;;;12.60;99.90;;;;;;5044229;28;20201;-56
2024/02/15 02:12:24;;;;;;;3.33;1.37;;;12.50;99.90;;;;;;5044676;28;20605;-56
2024/02/15 02:14:51;;;;;;;2.20;1.40;;;12.60;99.90;;;;;;5042375;28;20209;-56
2024/02/15 02:17:19;;;;;;;2.63;1.50;;;12.60;99.90;;;;;;5041648;28;20286;-56
2024/02/15 02:19:49;;;;;;;1.87;1.43;;;12.50;99.90;;;;;;5042826;28;20210;-57
2024/02/15 02:22:18;;;;;;;2.50;1.90;;;12.50;99.90;;;;;;5044652;28;20706;-56
2024/02/15 02:25:11;;;;;;;4.03;2.03;;;12.50;99.90;;;;;;5043022;28;20233;-56
2024/02/15 02:27:39;;;;;;;2.37;1.50;;;12.50;99.90;;;;;;5035052;28;20198;-56
2024/02/15 02:30:08;;;;;;;4.40;1.80;;;12.50;99.90;;;;;;5044262;28;20692;-56
2024/02/15 02:32:36;;;;;;;2.90;1.73;;;12.40;99.90;;;;;;5044066;28;20248;-56
2024/02/15 02:35:03;;;;;;;2.20;1.53;;;12.40;99.90;;;;;;5041145;28;20202;-56
2024/02/15 02:37:30;;;;;;;4.80;1.90;;;12.30;99.90;;;;;;5040906;28;20664;-56
2024/02/15 02:39:56;;;;;;;2.30;1.73;;;12.30;99.90;;;;;;5043955;28;20271;-56
2024/02/15 02:42:23;;;;;;;3.33;1.83;;;12.30;99.90;;;;;;5044468;28;20221;-56
2024/02/15 02:44:51;;;;;;;2.23;1.87;;;12.20;99.90;;;;;;5041933;28;20691;-56
2024/02/15 02:47:18;;;;;;;3.20;1.97;;;12.30;99.90;;;;;;5040872;28;20528;-57
2024/02/15 02:49:45;;;;;;;3.40;1.70;;;12.30;99.90;;;;;;5041874;28;20229;-56
2024/02/15 02:52:11;;;;;;;3.00;1.60;;;12.20;99.90;;;;;;5043837;28;20225;-56
2024/02/15 02:54:38;;;;;;;2.00;1.70;;;12.20;99.90;;;;;;5043771;28;20228;-56
2024/02/15 02:57:06;;;;;;;2.77;1.83;;;12.10;99.90;;;;;;5040909;28;20210;-56
2024/02/15 02:59:34;;;;;;;3.13;1.80;;;12.10;99.90;;;;;;5040533;28;20205;-56
2024/02/15 03:02:03;;;;;;;1.93;1.57;;;12.10;99.90;;;;;;5040494;28;20629;-56
2024/02/15 03:04:30;;;;;;;2.53;1.60;;;12.10;99.90;;;;;;5040586;28;20209;-56
2024/02/15 03:06:57;;;;;;;4.47;1.53;;;12.10;99.90;;;;;;5043305;28;20722;-56
2024/02/15 03:09:29;;;;;;;7.03;2.23;;;12.10;99.90;;;;;;5043896;28;20225;-56
2024/02/15 03:11:55;;;;;;;7.90;1.70;;;12.10;99.90;;;;;;5040793;28;20618;-56
2024/02/15 03:14:22;;;;;;;1.80;1.13;;;12.10;99.90;;;;;;5040368;28;20679;-56
2024/02/15 03:16:49;;;;;;;2.87;1.60;;;12.00;99.90;;;;;;5042420;28;20202;-56
2024/02/15 03:19:17;;;;;;;2.97;1.20;;;12.00;99.90;;;;;;5043507;28;20210;-56
2024/02/15 03:21:46;;;;;;;2.70;1.03;;;12.00;99.90;;;;;;5042373;28;20225;-56
2024/02/15 03:24:13;;;;;;;2.33;1.37;;;12.00;99.90;;;;;;5040326;28;20293;-56
2024/02/15 03:26:40;;;;;;;2.50;1.37;;;11.90;99.90;;;;;;5040811;28;20203;-56
2024/02/15 03:29:07;;;;;;;2.07;1.10;;;11.90;99.90;;;;;;5043614;28;20206;-56
2024/02/15 03:31:36;;;;;;;3.83;1.60;;;11.90;99.90;;;;;;5043418;28;20225;-56
2024/02/15 03:34:03;;;;;;;2.13;1.10;;;11.70;99.90;;;;;;5032411;28;20237;-56
2024/02/15 03:36:30;;;;;;;2.00;1.20;;;11.70;99.90;;;;;;5040258;28;20202;-56
2024/02/15 03:38:57;;;;;;;1.67;1.13;;;11.60;99.90;;;;;;5042948;28;20198;-56
2024/02/15 03:41:24;;;;;;;4.10;1.90;;;11.60;99.90;;;;;;5043143;28;20202;-56
2024/02/15 03:43:52;;;;;;;4.87;1.53;;;11.60;99.90;;;;;;5041026;28;20698;-56
2024/02/15 03:46:19;;;;;;;4.57;1.70;;;11.60;99.90;;;;;;5039897;28;20234;-56
2024/02/15 03:48:46;;;;;;;5.70;2.50;;;11.50;99.90;;;;;;5041216;28;20279;-56
2024/02/15 03:51:18;;;;;;;4.20;1.53;;;11.50;99.90;;;;;;5043059;28;20633;-56
2024/02/15 03:53:47;;;;;;;2.73;1.50;;;11.50;99.90;;;;;;5091555;23;20598;-59
2024/02/15 03:56:14;;;;;;;2.60;1.50;;;11.30;99.90;;;;;;5071571;28;20681;-58
2024/02/15 03:58:40;;;;;;;3.93;1.33;;;11.30;99.90;;;;;;5070933;28;20200;-59
2024/02/15 04:01:09;;;;;;;2.10;1.30;;;11.30;99.90;;;;;;5071235;28;20205;-59
2024/02/15 04:03:36;;;;;;;3.13;1.40;;;11.30;99.90;;;;;;5063305;28;20224;-59
2024/02/15 04:06:04;;;;;;;2.30;1.50;;;11.30;99.90;;;;;;5051628;28;20205;-59
2024/02/15 04:08:31;;;;;;;2.60;1.40;;;11.30;99.90;;;;;;5059682;28;20201;-59
2024/02/15 04:10:58;;;;;;;3.90;1.40;;;11.40;99.90;;;;;;5062077;28;20243;-59
2024/02/15 04:13:25;;;;;;;2.63;1.43;;;11.40;99.90;;;;;;5062841;28;20224;-59
2024/02/15 04:15:52;;;;;;;2.33;1.40;;;11.50;99.90;;;;;;5061026;28;20201;-59
2024/02/15 04:18:19;;;;;;;4.17;1.40;;;11.40;99.90;;;;;;5059744;28;20202;-59
2024/02/15 04:20:46;;;;;;;3.10;1.80;;;11.50;99.90;;;;;;5060460;28;20259;-59
2024/02/15 04:23:13;;;;;;;3.63;1.70;;;11.60;99.90;;;;;;5062893;28;20217;-59
2024/02/15 04:25:40;;;;;;;18.83;10.40;;;11.70;99.90;;;;;;5062471;28;20201;-58
2024/02/15 04:28:08;;;;;;;28.10;16.93;;;11.80;99.90;;;;;;5059425;28;20201;-59
2024/02/15 04:30:38;;;;;;;5.63;2.70;;;11.90;99.90;;;;;;5059615;28;20206;-58
2024/02/15 04:33:05;;;;;;;2.63;1.57;;;12.00;99.90;;;;;;5062632;28;20693;-58
2024/02/15 04:35:32;;;;;;;2.70;1.40;;;12.10;99.90;;;;;;5062918;28;20296;-59
2024/02/15 04:37:58;;;;;;;2.40;1.40;;;12.20;99.90;;;;;;5059854;28;20209;-58
2024/02/15 04:40:25;;;;;;;2.47;1.20;;;12.20;99.90;;;;;;5058964;28;20675;-58
2024/02/15 04:42:52;;;;;;;2.27;1.33;;;12.10;99.90;;;;;;5061096;28;20233;-59
2024/02/15 04:45:22;;;;;;;2.87;1.67;;;12.00;99.90;;;;;;5062756;28;20610;-58
2024/02/15 04:47:51;;;;;;;2.63;1.73;;;11.90;99.90;;;;;;5061297;28;20209;-58
2024/02/15 04:50:19;;;;;;;2.63;1.53;;;11.80;99.90;;;;;;5059060;28;20267;-59
2024/02/15 04:52:48;;;;;;;5.03;1.80;;;11.70;99.90;;;;;;5059855;28;20279;-59
2024/02/15 04:55:15;;;;;;;3.30;1.90;;;11.70;99.90;;;;;;5062662;28;20262;-59
2024/02/15 04:57:42;;;;;;;4.40;1.60;;;11.70;99.90;;;;;;5062208;28;20205;-59
2024/02/15 05:00:11;;;;;;;9.00;4.83;;;11.80;99.90;;;;;;5058982;28;20628;-59
2024/02/15 05:02:40;;;;;;;2.93;1.80;;;11.90;99.90;;;;;;5059097;28;20221;-58
2024/02/15 05:05:07;;;;;;;3.90;2.30;;;12.00;99.90;;;;;;5051317;28;20251;-58
2024/02/15 05:07:34;;;;;;;4.97;1.83;;;12.00;99.90;;;;;;5059496;28;20213;-59
2024/02/15 05:10:06;;;;;;;2.57;1.50;;;12.10;99.90;;;;;;5062670;28;20460;-59
2024/02/15 05:12:34;;;;;;;3.50;1.80;;;12.20;99.90;;;;;;5066083;28;20266;-60
2024/02/15 05:15:00;;;;;;;3.23;1.60;;;12.20;99.90;;;;;;5063130;28;20285;-60
2024/02/15 05:17:29;;;;;;;6.27;2.10;;;12.30;99.90;;;;;;5062618;28;20205;-59
2024/02/15 05:19:58;;;;;;;3.90;1.93;;;12.30;99.90;;;;;;5064644;28;20248;-59
2024/02/15 05:22:28;;;;;;;3.73;1.90;;;12.40;99.90;;;;;;5065856;28;20217;-60
2024/02/15 05:24:55;;;;;;;4.23;1.50;;;12.50;99.90;;;;;;5063759;28;20201;-59
2024/02/15 05:27:23;;;;;;;3.17;1.50;;;12.50;99.90;;;;;;5062467;28;20205;-58
2024/02/15 05:29:52;;;;;;;2.00;1.40;;;12.60;99.90;;;;;;5063602;28;20217;-59
2024/02/15 05:32:19;;;;;;;2.27;1.10;;;12.70;99.90;;;;;;5065692;28;20282;-59
2024/02/15 05:34:47;;;;;;;3.90;1.50;;;12.60;99.90;;;;;;5064592;28;20209;-59
2024/02/15 05:37:15;;;;;;;6.23;1.73;;;12.60;99.90;;;;;;5062422;28;20205;-59
2024/02/15 05:39:42;;;;;;;2.60;1.50;;;12.60;99.90;;;;;;5062240;28;20256;-60
2024/02/15 05:42:10;;;;;;;2.20;1.30;;;12.60;99.90;;;;;;5065283;28;20217;-58
2024/02/15 05:44:37;;;;;;;3.47;1.50;;;12.70;99.90;;;;;;5065561;28;20683;-58
2024/02/15 05:47:04;;;;;;;2.23;1.30;;;12.70;99.90;;;;;;5062092;28;20206;-59
2024/02/15 05:49:30;;;;;;;3.93;1.57;;;12.80;99.90;;;;;;5061738;28;20209;-58
2024/02/15 05:51:57;;;;;;;2.83;1.80;;;12.80;99.90;;;;;;5063938;28;20217;-58
2024/02/15 05:54:25;;;;;;;4.70;2.10;;;12.90;99.90;;;;;;5065525;28;20606;-59
2024/02/15 05:56:53;;;;;;;3.10;1.27;;;12.90;99.90;;;;;;5064016;28;20290;-59
2024/02/15 05:59:20;;;;;;;2.23;1.30;;;13.00;99.90;;;;;;5061636;28;20671;-59
2024/02/15 06:01:48;;;;;;;2.17;1.50;;;13.00;99.90;;;;;;5062466;28;20206;-59
2024/02/15 06:04:15;;;;;;;3.53;1.40;;;13.10;99.90;;;;;;5065399;28;20201;-59
2024/02/15 06:06:42;;;;;;;5.37;1.60;;;13.20;99.90;;;;;;5065165;28;20205;-59
2024/02/15 06:09:09;;;;;;;5.17;1.50;;;13.20;99.90;;;;;;5061570;28;20675;-59
2024/02/15 06:11:38;;;;;;;3.37;1.50;;;13.20;99.90;;;;;;5061778;28;20624;-59
2024/02/15 06:14:06;;;;;;;3.70;1.50;;;13.30;99.90;;;;;;5064697;28;20241;-59
2024/02/15 06:16:32;;;;;;;3.63;2.27;;;13.30;99.90;;;;;;5065055;28;20657;-58
2024/02/15 06:18:59;;;;;;;2.63;1.60;;;13.30;99.90;;;;;;5062394;28;20215;-59
2024/02/15 06:21:26;;;;;;;1.73;1.20;;;13.40;99.90;;;;;;5060710;28;20202;-59
2024/02/15 06:23:53;;;;;;;3.77;1.50;;;13.40;99.90;;;;;;5062914;28;20266;-58
2024/02/15 06:26:21;;;;;;;4.80;1.50;;;13.40;99.90;;;;;;5064892;28;20205;-59
2024/02/15 06:39:45;;;;;;;6.03;2.60;;;13.30;99.90;;;;;;5061361;28;20728;-59
2024/02/15 06:42:15;;;;;;;4.83;2.90;;;13.30;99.90;;;;;;5064792;28;20264;-60
2024/02/15 06:44:44;;;;;;;3.03;2.17;;;13.30;99.90;;;;;;5064197;28;20197;-59
2024/02/15 06:47:12;;;;;;;2.47;1.60;;;13.40;99.90;;;;;;5060872;28;20208;-59
2024/02/15 06:49:40;;;;;;;3.00;1.50;;;13.40;99.90;;;;;;5060563;28;20206;-59
2024/02/15 06:52:07;;;;;;;2.17;1.37;;;13.40;99.90;;;;;;5060843;28;20291;-60
2024/02/15 06:54:35;;;;;;;3.40;1.47;;;13.40;99.90;;;;;;5060666;28;20228;-59
2024/02/15 06:57:02;;;;;;;2.17;1.20;;;13.40;99.90;;;;;;5063492;28;20252;-59
2024/02/15 06:59:29;;;;;;;2.53;1.50;;;13.50;99.90;;;;;;5063960;28;20201;-59
2024/02/15 07:01:57;;;;;;;3.07;1.33;;;13.60;99.90;;;;;;5062156;28;20212;-58
2024/02/15 07:04:25;;;;;;;4.53;1.77;;;13.70;99.90;;;;;;5060541;28;20683;-59
2024/02/15 07:06:54;;;;;;;3.50;2.00;;;13.70;99.90;;;;;;5061702;28;20304;-59
2024/02/15 07:09:21;;;;;;;4.63;1.67;;;13.60;99.90;;;;;;5063640;28;20663;-58
2024/02/15 07:11:49;;;;;;;3.53;1.70;;;13.60;99.90;;;;;;5062816;28;20200;-58
2024/02/15 07:14:16;;;;;;;3.60;1.73;;;13.50;99.90;;;;;;5060200;28;20275;-59
2024/02/15 07:16:46;;;;;;;3.87;1.60;;;13.50;99.90;;;;;;5060024;28;20213;-59
2024/02/15 07:19:15;;;;;;;3.87;1.27;;;13.60;99.90;;;;;;5052394;28;20289;-60
2024/02/15 07:21:42;;;;;;;3.60;1.53;;;13.50;99.90;;;;;;5060248;28;20206;-59
2024/02/15 07:24:09;;;;;;;2.87;1.60;;;13.50;99.90;;;;;;5063667;28;20563;-59
2024/02/15 07:26:36;;;;;;;4.37;2.03;;;13.50;99.90;;;;;;5063492;28;20655;-58
2024/02/15 07:29:05;;;;;;;3.27;1.47;;;13.60;99.90;;;;;;5060342;28;20210;-58
2024/02/15 07:31:32;;;;;;;3.53;1.90;;;13.60;99.90;;;;;;5060035;28;20205;-59
2024/02/15 07:33:59;;;;;;;3.60;1.60;;;13.70;99.90;;;;;;5061105;28;20721;-59
2024/02/15 07:36:27;;;;;;;5.53;1.60;;;13.70;99.90;;;;;;5063739;28;20197;-58
2024/02/15 07:38:57;;;;;;;3.33;1.77;;;13.80;99.90;;;;;;5061939;28;20260;-59
2024/02/15 07:41:24;;;;;;;3.47;1.90;;;13.70;99.90;;;;;;5059997;28;20430;-59
2024/02/15 07:43:54;;;;;;;5.07;1.53;;;13.70;99.90;;;;;;5061293;28;20308;-59
2024/02/15 07:46:21;;;;;;;2.60;1.27;;;13.70;99.90;;;;;;5063422;28;20250;-58
2024/02/15 07:48:48;;;;;;;5.27;1.60;;;13.80;99.90;;;;;;5062636;28;20279;-59
2024/02/15 07:51:16;;;;;;;6.20;1.27;;;13.90;99.90;;;;;;5059639;28;20206;-59
2024/02/15 07:53:44;;;;;;;3.83;1.40;;;13.90;99.90;;;;;;5059572;28;20229;-58
2024/02/15 07:56:13;;;;;;;2.67;1.40;;;14.00;99.90;;;;;;5052048;28;20202;-59
2024/02/15 07:58:42;;;;;;;3.00;1.50;;;14.10;99.90;;;;;;5060360;28;20280;-59
2024/02/15 08:01:09;;;;;;;3.07;1.30;;;14.20;99.90;;;;;;5063137;28;20235;-58
2024/02/15 08:03:36;;;;;;;2.63;1.20;;;14.40;99.90;;;;;;5063208;28;20225;-59
2024/02/15 08:06:06;;;;;;;3.53;1.60;;;14.40;99.90;;;;;;5060422;28;20239;-59
2024/02/15 08:08:34;;;;;;;3.50;1.50;;;14.40;99.90;;;;;;5059794;28;20206;-59
2024/02/15 08:11:02;;;;;;;3.30;1.50;;;14.40;99.90;;;;;;5061740;28;20221;-59
2024/02/15 08:13:30;;;;;;;1.90;1.40;;;14.50;99.90;;;;;;5062717;28;20698;-59
2024/02/15 08:15:56;;;;;;;3.73;1.40;;;14.50;99.90;;;;;;5061113;28;20761;-59
2024/02/15 08:18:24;;;;;;;2.73;1.60;;;14.40;99.90;;;;;;5059686;28;20202;-58
2024/02/15 08:20:51;;;;;;;2.17;1.47;;;14.40;99.90;;;;;;5060115;28;20678;-58
2024/02/15 08:23:17;;;;;;;3.03;1.50;;;14.40;99.90;;;;;;5062742;28;20707;-59
2024/02/15 08:25:44;;;;;;;3.17;1.70;;;14.40;99.90;;;;;;5062945;28;20208;-58
2024/02/15 08:28:13;;;;;;;2.83;1.20;;;14.50;99.90;;;;;;5059430;28;20487;-58
2024/02/15 08:30:39;;;;;;;2.70;1.40;;;14.70;99.90;;;;;;5059300;28;20202;-60
2024/02/15 08:33:06;;;;;;;4.77;1.60;;;14.80;99.90;;;;;;5061991;28;20225;-58
2024/02/15 08:35:33;;;;;;;3.57;1.30;;;15.00;99.90;;;;;;5063017;28;20205;-58
2024/02/15 08:37:59;;;;;;;2.23;1.50;;;15.20;99.90;;;;;;5060598;28;20212;-57
2024/02/15 08:40:27;;;;;;;1.93;1.17;;;15.30;99.90;;;;;;5059159;28;20208;-58
2024/02/15 08:42:55;;;;;;;3.50;1.30;;;15.50;99.90;;;;;;5060192;28;20255;-59
2024/02/15 08:45:23;;;;;;;4.93;1.30;;;15.70;99.90;;;;;;5065601;28;20228;-58
2024/02/15 08:47:52;;;;;;;2.67;1.10;;;15.80;99.90;;;;;;5065702;28;20212;-58
2024/02/15 08:50:22;;;;;;;2.73;1.30;;;15.70;99.90;;;;;;5062544;28;20504;-58
2024/02/15 08:52:49;;;;;;;2.17;1.37;;;15.70;99.90;;;;;;5062951;28;20722;-58
2024/02/15 08:55:16;;;;;;;3.72;1.23;;;15.80;99.90;;;;;;5066093;28;20578;-58
2024/02/15 08:57:44;;;;;;;4.85;1.33;;;15.80;99.90;;;;;;5066171;28;20537;-59
2024/02/15 09:00:15;;;;;;;3.78;1.63;;;15.80;99.90;;;;;;5054380;28;20577;-58
2024/02/15 09:02:44;;;;;;;5.13;1.27;;;15.80;99.90;;;;;;5062951;28;20217;-58
2024/02/15 09:05:13;;;;;;;2.63;1.02;;;15.70;99.90;;;;;;5066198;28;20193;-58
2024/02/15 09:07:41;;;;;;;2.63;1.20;;;15.70;99.90;;;;;;5066583;28;20666;-58
2024/02/15 09:10:09;;;;;;;3.00;1.80;;;15.70;99.90;;;;;;5055672;28;20300;-58
2024/02/15 09:12:37;;;;;;;4.83;1.40;;;15.70;99.90;;;;;;5065977;28;20233;-58
2024/02/15 09:15:04;;;;;;;1.83;1.00;;;15.80;99.90;;;;;;5065525;28;20243;-58
2024/02/15 09:17:32;;;;;;;1.70;0.98;;;15.70;99.90;;;;;;5065879;28;20247;-57
2024/02/15 09:20:00;;;;;;;2.72;1.05;;;15.90;99.90;;;;;;5064020;28;20213;-57
2024/02/15 09:22:27;;;;;;;2.08;1.15;;;15.90;99.90;;;;;;5062059;28;20285;-58
2024/02/15 09:24:53;;;;;;;2.88;1.45;;;15.90;99.90;;;;;;5063330;28;20205;-57
2024/02/15 09:27:21;;;;;;;1.70;1.10;;;15.90;99.90;;;;;;5065428;28;20250;-57
2024/02/15 09:29:47;;;;;;;2.13;1.30;;;15.80;99.90;;;;;;5065416;28;20232;-58
2024/02/15 09:32:14;;;;;;;3.00;1.55;;;15.70;99.90;;;;;;5062201;28;20622;-58
2024/02/15 09:34:41;;;;;;;2.27;1.37;;;15.60;99.90;;;;;;5062141;28;20275;-58
2024/02/15 09:37:09;;;;;;;1.70;0.85;;;15.60;99.90;;;;;;5065525;28;20214;-57
2024/02/15 09:39:38;;;;;;;2.35;1.50;;;15.60;99.90;;;;;;5065289;28;20206;-58
2024/02/15 09:42:05;;;;;;;1.37;1.00;;;15.70;99.90;;;;;;5062914;28;20274;-59
2024/02/15 09:44:32;;;;;;;1.23;0.80;;;15.80;99.90;;;;;;5061878;28;20220;-59
2024/02/15 09:47:08;;;;;;;2.75;1.00;;;15.90;99.90;;;;;;5063578;28;20220;-58
2024/02/15 09:49:39;;;;;;;3.03;1.20;;;15.90;99.90;;;;;;5065369;28;20307;-59
2024/02/15 09:52:11;;;;;;;8.65;6.82;;;16.00;99.90;;;;;;5062506;28;20235;-55
2024/02/15 09:54:43;;;;;;;2.53;1.30;;;16.10;99.90;;;;;;5061997;28;20224;-55
2024/02/15 09:57:10;;;;;;;2.78;0.93;;;16.20;99.90;;;;;;5060783;28;20201;-65
2024/02/15 09:59:37;;;;;;;4.93;1.63;;;16.30;99.90;;;;;;5061582;28;20702;-62
2024/02/15 10:02:04;;;;;;;2.72;1.00;;;16.40;99.90;;;;;;5063945;28;20239;-60
2024/02/15 10:04:34;;;;;;;3.08;1.15;;;16.50;99.90;;;;;;5064610;28;20737;-61
2024/02/15 10:07:01;;;;;;;4.55;1.38;;;16.50;99.90;;;;;;5063697;28;20255;-60
2024/02/15 10:09:30;;;;;;;2.30;1.25;;;16.50;99.90;;;;;;5061409;28;20201;-60
2024/02/15 10:11:57;;;;;;;5.28;1.13;;;16.60;99.90;;;;;;5061385;28;20209;-59
2024/02/15 10:14:25;;;;;;;3.67;1.00;;;16.60;99.90;;;;;;5066529;28;20647;-58
2024/02/15 10:16:52;;;;;;;3.10;1.20;;;16.60;99.90;;;;;;5064023;28;20208;-60
2024/02/15 10:19:20;;;;;;;3.58;1.40;;;16.80;99.90;;;;;;5061593;28;20221;-60
2024/02/15 10:21:47;;;;;;;3.80;1.10;;;16.80;99.90;;;;;;5061415;28;20201;-60
2024/02/15 10:24:14;;;;;;;2.75;1.20;;;16.90;99.90;;;;;;5064522;28;20201;-63
2024/02/15 10:26:42;;;;;;;2.20;0.82;;;16.70;99.90;;;;;;5057677;28;20586;-62
2024/02/15 10:29:10;;;;;;;2.55;0.98;;;16.50;99.90;;;;;;5063327;28;20216;-60
2024/02/15 10:31:39;;;;;;;2.35;0.80;;;16.30;99.90;;;;;;5064812;28;20201;-60
2024/02/15 10:34:07;;;;;;;1.70;0.88;;;16.30;99.90;;;;;;5061638;28;20217;-64
2024/02/15 10:36:34;;;;;;;3.15;1.10;;;16.30;99.90;;;;;;5061120;28;20209;-59
2024/02/15 10:39:19;;;;;;;2.20;1.20;;;16.40;99.90;;;;;;5062636;28;20654;-60
2024/02/15 10:41:48;;;;;;;4.72;1.33;;;16.50;99.90;;;;;;5064552;28;20290;-55
2024/02/15 10:44:18;;;;;;;1.17;0.80;;;16.50;99.90;;;;;;5053100;28;20220;-57
2024/02/15 10:46:46;;;;;;;4.93;1.20;;;16.60;99.90;;;;;;5060901;28;20233;-56
2024/02/15 10:49:14;;;;;;;1.88;1.15;;;16.70;99.90;;;;;;5063957;28;20236;-56
2024/02/15 10:51:44;;;;;;;3.17;0.90;;;16.80;99.90;;;;;;5064354;28;20201;-56
2024/02/15 10:54:14;;;;;;;2.38;0.90;;;17.00;99.90;;;;;;5061443;28;20263;-57
2024/02/15 10:56:46;;;;;;;1.95;1.08;;;17.00;99.90;;;;;;5060668;28;20741;-58
2024/02/15 10:59:17;;;;;;;1.77;0.73;;;16.90;99.90;;;;;;5063807;28;20216;-56
2024/02/15 11:01:46;;;;;;;4.18;1.05;;;16.90;99.90;;;;;;5064017;28;20212;-59
2024/02/15 11:04:16;;;;;;;4.18;1.63;;;16.90;99.90;;;;;;5061061;28;20198;-57
2024/02/15 11:06:44;;;;;;;2.55;0.95;;;16.90;99.90;;;;;;5061195;28;20229;-57
2024/02/15 11:09:13;;;;;;;2.40;0.90;;;17.00;99.90;;;;;;5063245;28;20200;-57
2024/02/15 11:11:41;;;;;;;2.30;1.23;;;17.10;99.90;;;;;;5063834;28;20244;-56
2024/02/15 11:14:29;;;;;;;4.40;1.05;;;17.20;99.90;;;;;;5060926;28;20224;-55
2024/02/15 11:16:57;;;;;;;2.65;1.10;;;17.40;99.90;;;;;;5060911;28;20632;-56
2024/02/15 11:19:46;;;;;;;2.53;0.98;;;17.40;99.90;;;;;;5063634;28;20669;-56
2024/02/15 11:22:15;;;;;;;3.53;1.35;;;17.60;99.90;;;;;;5060559;28;20287;-57
2024/02/15 11:24:49;;;;;;;2.03;0.90;;;17.80;99.90;;;;;;5060282;28;20663;-56
2024/02/15 11:27:27;;;;;;;3.17;1.00;;;17.90;99.90;;;;;;5052403;28;20197;-57
2024/02/15 11:30:01;;;;;;;4.38;1.13;;;18.00;99.90;;;;;;5060518;28;20320;-56
2024/02/15 11:32:44;;;;;;;2.30;1.10;;;18.10;99.90;;;;;;5063395;28;20228;-56
2024/02/15 11:35:11;;;;;;;2.63;1.52;;;18.20;99.90;;;;;;5060296;28;20312;-58
2024/02/15 11:38:09;;;;;;;2.30;0.85;;;18.00;99.90;;;;;;5060065;28;20677;-56
2024/02/15 11:41:01;;;;;;;4.63;1.30;;;18.00;99.90;;;;;;5054189;28;20738;-56
2024/02/15 11:43:57;;;;;;;3.67;1.20;;;18.00;99.90;;;;;;5053422;28;20221;-56
2024/02/15 11:46:30;;;;;;;4.57;1.08;;;18.20;99.90;;;;;;5052997;28;20626;-56
2024/02/15 11:48:58;;;;;;;1.33;0.60;;;18.40;99.90;;;;;;5061037;28;20206;-57
2024/02/15 11:51:30;;;;;;;2.72;0.88;;;18.60;99.90;;;;;;5063407;28;20204;-58
2024/02/15 11:54:06;;;;;;;3.30;1.05;;;18.70;99.90;;;;;;5062350;28;20240;-57
2024/02/15 11:56:51;;;;;;;5.47;2.70;;;18.80;99.90;;;;;;5060026;28;20275;-56
2024/02/15 11:59:29;;;;;;;2.22;1.20;;;18.90;99.90;;;;;;5050114;28;20205;-57
2024/02/15 12:18:44;;;;;;;1.95;0.80;;;19.90;99.90;;;;;;5055480;28;20208;-58
2024/02/15 12:21:15;;;;;;;2.15;0.70;;;19.80;99.90;;;;;;5066343;28;20206;-57
2024/02/15 12:23:42;;;;;;;2.97;1.20;;;19.80;99.90;;;;;;5067237;28;20233;-58
2024/02/15 12:26:09;;;;;;;1.88;1.00;;;20.00;99.90;;;;;;5064520;28;20699;-57
2024/02/15 12:28:36;;;;;;;2.92;0.82;;;20.10;99.90;;;;;;5063806;28;20535;-57
2024/02/15 12:31:06;;;;;;;2.28;1.52;;;20.30;99.90;;;;;;5065029;28;20209;-58
2024/02/15 12:33:33;;;;;;;1.88;0.77;;;20.30;99.90;;;;;;5066915;28;20278;-57
2024/02/15 12:36:08;;;;;;;3.38;0.75;;;20.40;99.90;;;;;;5065593;28;20224;-58
2024/02/15 12:38:37;;;;;;;4.88;0.90;;;20.50;99.90;;;;;;5063564;28;20201;-57
2024/02/15 12:41:05;;;;;;;1.50;0.60;;;20.60;99.90;;;;;;5064723;28;20691;-57
2024/02/15 12:43:32;;;;;;;2.13;1.00;;;20.70;99.90;;;;;;5066781;28;20224;-57
2024/02/15 12:45:58;;;;;;;2.58;0.88;;;20.70;99.90;;;;;;5065551;28;20201;-57
2024/02/15 12:48:26;;;;;;;1.83;0.90;;;20.60;99.90;;;;;;5063481;28;20202;-58
2024/02/15 12:50:54;;;;;;;1.65;0.90;;;20.60;99.90;;;;;;5063350;28;20240;-58
2024/02/15 12:53:24;;;;;;;2.92;0.75;;;20.60;99.90;;;;;;5066523;28;20227;-59
2024/02/15 12:55:55;;;;;;;2.25;0.50;;;20.60;99.90;;;;;;5066690;28;20224;-56
2024/02/15 12:58:24;;;;;;;3.90;2.20;;;20.70;99.90;;;;;;5056158;28;20238;-57
2024/02/15 13:00:55;;;;;;;3.53;0.95;;;20.80;99.90;;;;;;5062723;28;20690;-57
2024/02/15 13:03:22;;;;;;;1.73;0.90;;;20.70;99.90;;;;;;5055772;28;20240;-57
2024/02/15 13:05:48;;;;;;;2.72;1.30;;;20.80;99.90;;;;;;5063079;28;20252;-58
2024/02/15 13:08:17;;;;;;;4.65;2.30;;;20.80;99.90;;;;;;5065953;28;20228;-57
2024/02/15 13:10:46;;;;;;;2.13;0.90;;;20.90;99.90;;;;;;5066331;28;20201;-56
2024/02/15 13:13:13;;;;;;;3.05;1.30;;;20.90;99.90;;;;;;5063482;28;20225;-57
2024/02/15 13:15:40;;;;;;;2.13;0.93;;;21.00;99.90;;;;;;5063042;28;20222;-58
2024/02/15 13:18:09;;;;;;;1.60;0.90;;;21.00;99.90;;;;;;5065016;28;20213;-57
2024/02/15 13:20:37;;;;;;;5.38;1.27;;;21.00;99.90;;;;;;5066130;28;20670;-55